sensor_id;sensor_type;location;lat;lon;timestamp;temperature;humidity
8248;DHT22;4164;49.844;8.830;2023-07-31T00:00:34;18.40;99.90
8248;DHT22;4164;49.844;8.830;2023-07-31T00:02:59;18.40;99.90
8248;DHT22;4164;49.844;8.830;2023-07-31T00:05:25;18.40;99.90
8248;DHT22;4164;49.844;8.830;2023-07-31T00:07:51;18.30;99.90
8248;DHT22;4164;49.844;8.830;2023-07-31T00:10:16;18.30;99.90
8248;DHT22;4164;49.844;8.830;2023-07-31T00:12:43;18.30;99.90
8248;DHT22;4164;49.844;8.830;2023-07-31T00:15:09;18.30;99.90
8248;DHT22;4164;49.844;8.830;2023-07-31T00:17:35;18.30;99.90
8248;DHT22;4164;49.844;8.830;2023-07-31T00:20:01;18.30;99.90
8248;DHT22;4164;49.844;8.830;2023-07-31T00:22:26;18.20;99.90
8248;DHT22;4164;49.844;8.830;2023-07-31T00:24:52;18.10;99.90
8248;DHT22;4164;49.844;8.830;2023-07-31T00:27:17;18.10;99.90
8248;DHT22;4164;49.844;8.830;2023-07-31T00:29:43;18.00;99.90
8248;DHT22;4164;49.844;8.830;2023-07-31T00:32:08;17.90;99.90
8248;DHT22;4164;49.844;8.830;2023-07-31T00:34:34;17.80;99.90
8248;DHT22;4164;49.844;8.830;2023-07-31T00:37:00;17.80;99.90
8248;DHT22;4164;49.844;8.830;2023-07-31T00:39:25;17.90;99.90
8248;DHT22;4164;49.844;8.830;2023-07-31T00:41:51;17.90;99.90
8248;DHT22;4164;49.844;8.830;2023-07-31T00:44:16;18.00;99.90
8248;DHT22;4164;49.844;8.830;2023-07-31T00:46:42;18.00;99.90
8248;DHT22;4164;49.844;8.830;2023-07-31T00:49:08;18.00;99.90
8248;DHT22;4164;49.844;8.830;2023-07-31T00:51:34;18.00;99.90
8248;DHT22;4164;49.844;8.830;2023-07-31T00:54:00;18.10;99.90
8248;DHT22;4164;49.844;8.830;2023-07-31T00:56:26;18.10;99.90
8248;DHT22;4164;49.844;8.830;2023-07-31T00:58:52;18.20;99.90
8248;DHT22;4164;49.844;8.830;2023-07-31T01:01:18;18.20;99.90
8248;DHT22;4164;49.844;8.830;2023-07-31T01:03:43;18.20;99.90
8248;DHT22;4164;49.844;8.830;2023-07-31T01:06:14;18.30;99.90
8248;DHT22;4164;49.844;8.830;2023-07-31T01:11:36;18.30;99.90
8248;DHT22;4164;49.844;8.830;2023-07-31T01:14:03;18.30;99.90
8248;DHT22;4164;49.844;8.830;2023-07-31T01:16:29;18.30;99.90
8248;DHT22;4164;49.844;8.830;2023-07-31T01:18:55;18.40;99.90
8248;DHT22;4164;49.844;8.830;2023-07-31T01:26:53;18.40;99.90
8248;DHT22;4164;49.844;8.830;2023-07-31T01:31:56;18.50;99.90
8248;DHT22;4164;49.844;8.830;2023-07-31T01:34:24;18.50;99.90
8248;DHT22;4164;49.844;8.830;2023-07-31T01:36:50;18.50;99.90
8248;DHT22;4164;49.844;8.830;2023-07-31T01:39:16;18.50;99.90
8248;DHT22;4164;49.844;8.830;2023-07-31T01:41:41;18.50;99.90
8248;DHT22;4164;49.844;8.830;2023-07-31T01:44:07;18.60;99.90
8248;DHT22;4164;49.844;8.830;2023-07-31T01:46:32;18.50;99.90
8248;DHT22;4164;49.844;8.830;2023-07-31T01:48:58;18.50;99.90
8248;DHT22;4164;49.844;8.830;2023-07-31T01:51:24;18.50;99.90
8248;DHT22;4164;49.844;8.830;2023-07-31T01:53:49;18.50;99.90
8248;DHT22;4164;49.844;8.830;2023-07-31T01:56:15;18.50;99.90
8248;DHT22;4164;49.844;8.830;2023-07-31T01:58:40;18.50;99.90
8248;DHT22;4164;49.844;8.830;2023-07-31T02:01:06;18.50;99.90
8248;DHT22;4164;49.844;8.830;2023-07-31T02:03:31;18.50;99.90
8248;DHT22;4164;49.844;8.830;2023-07-31T02:05:57;18.50;99.90
8248;DHT22;4164;49.844;8.830;2023-07-31T02:08:22;18.40;99.90
8248;DHT22;4164;49.844;8.830;2023-07-31T02:10:48;18.50;99.90
8248;DHT22;4164;49.844;8.830;2023-07-31T02:13:13;18.40;99.90
8248;DHT22;4164;49.844;8.830;2023-07-31T02:15:39;18.40;99.90
8248;DHT22;4164;49.844;8.830;2023-07-31T02:18:04;18.40;99.90
8248;DHT22;4164;49.844;8.830;2023-07-31T02:20:33;18.40;99.90
8248;DHT22;4164;49.844;8.830;2023-07-31T02:22:59;18.40;99.90
8248;DHT22;4164;49.844;8.830;2023-07-31T02:25:24;18.40;99.90
8248;DHT22;4164;49.844;8.830;2023-07-31T02:27:50;18.40;99.90
8248;DHT22;4164;49.844;8.830;2023-07-31T02:30:15;18.40;99.90
8248;DHT22;4164;49.844;8.830;2023-07-31T02:32:41;18.30;99.90
8248;DHT22;4164;49.844;8.830;2023-07-31T02:35:07;18.30;99.90
8248;DHT22;4164;49.844;8.830;2023-07-31T02:37:33;18.30;99.90
8248;DHT22;4164;49.844;8.830;2023-07-31T02:39:59;18.40;99.90
8248;DHT22;4164;49.844;8.830;2023-07-31T02:42:25;18.30;99.90
8248;DHT22;4164;49.844;8.830;2023-07-31T02:44:50;18.30;99.90
8248;DHT22;4164;49.844;8.830;2023-07-31T02:47:21;18.20;99.90
8248;DHT22;4164;49.844;8.830;2023-07-31T02:49:47;18.20;99.90
8248;DHT22;4164;49.844;8.830;2023-07-31T02:52:12;18.20;99.90
8248;DHT22;4164;49.844;8.830;2023-07-31T02:54:38;18.10;99.90
8248;DHT22;4164;49.844;8.830;2023-07-31T02:57:04;18.10;99.90
8248;DHT22;4164;49.844;8.830;2023-07-31T02:59:31;18.10;99.90
8248;DHT22;4164;49.844;8.830;2023-07-31T03:01:56;18.10;99.90
8248;DHT22;4164;49.844;8.830;2023-07-31T03:04:22;18.10;99.90
8248;DHT22;4164;49.844;8.830;2023-07-31T03:06:47;18.10;99.90
8248;DHT22;4164;49.844;8.830;2023-07-31T03:09:13;18.10;99.90
8248;DHT22;4164;49.844;8.830;2023-07-31T03:11:38;18.10;99.90
8248;DHT22;4164;49.844;8.830;2023-07-31T03:14:04;18.10;99.90
8248;DHT22;4164;49.844;8.830;2023-07-31T03:16:29;18.10;99.90
8248;DHT22;4164;49.844;8.830;2023-07-31T03:18:55;18.10;99.90
8248;DHT22;4164;49.844;8.830;2023-07-31T03:21:20;18.10;99.90
8248;DHT22;4164;49.844;8.830;2023-07-31T03:23:46;18.10;99.90
8248;DHT22;4164;49.844;8.830;2023-07-31T03:26:12;18.10;99.90
8248;DHT22;4164;49.844;8.830;2023-07-31T03:28:37;18.00;99.90
8248;DHT22;4164;49.844;8.830;2023-07-31T03:31:03;18.00;99.90
8248;DHT22;4164;49.844;8.830;2023-07-31T03:33:28;18.10;99.90
8248;DHT22;4164;49.844;8.830;2023-07-31T03:35:54;18.10;99.90
8248;DHT22;4164;49.844;8.830;2023-07-31T03:38:20;18.10;99.90
8248;DHT22;4164;49.844;8.830;2023-07-31T03:40:45;18.10;99.90
8248;DHT22;4164;49.844;8.830;2023-07-31T03:43:11;18.00;99.90
8248;DHT22;4164;49.844;8.830;2023-07-31T03:45:37;18.00;99.90
8248;DHT22;4164;49.844;8.830;2023-07-31T03:48:04;17.90;99.90
8248;DHT22;4164;49.844;8.830;2023-07-31T03:50:29;17.80;99.90
8248;DHT22;4164;49.844;8.830;2023-07-31T03:52:55;17.80;99.90
8248;DHT22;4164;49.844;8.830;2023-07-31T03:55:21;17.60;99.90
8248;DHT22;4164;49.844;8.830;2023-07-31T03:57:47;17.40;99.90
8248;DHT22;4164;49.844;8.830;2023-07-31T04:00:13;17.30;99.90
8248;DHT22;4164;49.844;8.830;2023-07-31T04:02:39;17.20;99.90
8248;DHT22;4164;49.844;8.830;2023-07-31T04:05:05;17.20;99.90
8248;DHT22;4164;49.844;8.830;2023-07-31T04:07:31;17.20;99.90
8248;DHT22;4164;49.844;8.830;2023-07-31T04:09:57;17.20;99.90
8248;DHT22;4164;49.844;8.830;2023-07-31T04:12:22;17.10;1.00
8248;DHT22;4164;49.844;8.830;2023-07-31T04:14:48;17.20;1.00
8248;DHT22;4164;49.844;8.830;2023-07-31T04:17:13;17.20;1.00
8248;DHT22;4164;49.844;8.830;2023-07-31T04:19:39;17.10;1.00
8248;DHT22;4164;49.844;8.830;2023-07-31T04:22:05;17.00;1.00
8248;DHT22;4164;49.844;8.830;2023-07-31T04:24:30;17.10;1.00
8248;DHT22;4164;49.844;8.830;2023-07-31T04:26:56;17.10;1.00
8248;DHT22;4164;49.844;8.830;2023-07-31T04:29:22;17.10;1.00
8248;DHT22;4164;49.844;8.830;2023-07-31T04:31:48;17.20;1.00
8248;DHT22;4164;49.844;8.830;2023-07-31T04:34:14;17.20;1.00
8248;DHT22;4164;49.844;8.830;2023-07-31T04:36:39;17.20;1.00
8248;DHT22;4164;49.844;8.830;2023-07-31T04:39:05;17.20;1.00
8248;DHT22;4164;49.844;8.830;2023-07-31T04:41:31;17.40;1.00
8248;DHT22;4164;49.844;8.830;2023-07-31T04:43:56;17.50;99.90
8248;DHT22;4164;49.844;8.830;2023-07-31T04:46:22;17.50;99.90
8248;DHT22;4164;49.844;8.830;2023-07-31T04:48:47;17.50;99.90
8248;DHT22;4164;49.844;8.830;2023-07-31T04:51:13;17.50;99.90
8248;DHT22;4164;49.844;8.830;2023-07-31T04:53:39;17.50;99.90
8248;DHT22;4164;49.844;8.830;2023-07-31T04:56:04;17.50;99.90
8248;DHT22;4164;49.844;8.830;2023-07-31T04:58:30;17.50;99.90
8248;DHT22;4164;49.844;8.830;2023-07-31T05:00:55;17.60;99.90
8248;DHT22;4164;49.844;8.830;2023-07-31T05:03:21;17.50;99.90
8248;DHT22;4164;49.844;8.830;2023-07-31T05:05:46;17.60;99.90
8248;DHT22;4164;49.844;8.830;2023-07-31T05:08:12;17.70;99.90
8248;DHT22;4164;49.844;8.830;2023-07-31T05:10:37;17.80;99.90
8248;DHT22;4164;49.844;8.830;2023-07-31T05:13:03;17.70;99.90
8248;DHT22;4164;49.844;8.830;2023-07-31T05:15:29;17.80;99.90
8248;DHT22;4164;49.844;8.830;2023-07-31T05:17:54;17.80;99.90
8248;DHT22;4164;49.844;8.830;2023-07-31T05:20:20;17.80;99.90
8248;DHT22;4164;49.844;8.830;2023-07-31T05:22:46;17.90;99.90
8248;DHT22;4164;49.844;8.830;2023-07-31T05:25:12;18.00;99.90
8248;DHT22;4164;49.844;8.830;2023-07-31T05:27:37;18.00;99.90
8248;DHT22;4164;49.844;8.830;2023-07-31T05:30:03;17.90;99.90
8248;DHT22;4164;49.844;8.830;2023-07-31T05:32:29;18.00;99.90
8248;DHT22;4164;49.844;8.830;2023-07-31T05:34:54;18.10;99.90
8248;DHT22;4164;49.844;8.830;2023-07-31T05:37:20;18.10;99.90
8248;DHT22;4164;49.844;8.830;2023-07-31T05:39:46;18.10;99.90
8248;DHT22;4164;49.844;8.830;2023-07-31T05:42:11;18.10;99.90
8248;DHT22;4164;49.844;8.830;2023-07-31T05:44:37;18.20;99.90
8248;DHT22;4164;49.844;8.830;2023-07-31T05:47:02;18.20;99.90
8248;DHT22;4164;49.844;8.830;2023-07-31T05:49:28;18.20;99.90
8248;DHT22;4164;49.844;8.830;2023-07-31T05:51:53;18.30;99.90
8248;DHT22;4164;49.844;8.830;2023-07-31T05:54:19;18.30;99.90
8248;DHT22;4164;49.844;8.830;2023-07-31T05:56:44;18.30;99.90
8248;DHT22;4164;49.844;8.830;2023-07-31T05:59:12;18.40;99.90
8248;DHT22;4164;49.844;8.830;2023-07-31T06:01:38;18.40;99.90
8248;DHT22;4164;49.844;8.830;2023-07-31T06:04:03;18.30;99.90
8248;DHT22;4164;49.844;8.830;2023-07-31T06:06:29;18.40;99.90
8248;DHT22;4164;49.844;8.830;2023-07-31T06:08:54;18.50;99.90
8248;DHT22;4164;49.844;8.830;2023-07-31T06:11:21;18.40;99.90
8248;DHT22;4164;49.844;8.830;2023-07-31T06:13:47;18.40;99.90
8248;DHT22;4164;49.844;8.830;2023-07-31T06:16:14;18.50;99.90
8248;DHT22;4164;49.844;8.830;2023-07-31T06:18:39;18.40;99.90
8248;DHT22;4164;49.844;8.830;2023-07-31T06:21:05;18.50;99.90
8248;DHT22;4164;49.844;8.830;2023-07-31T06:23:31;18.50;99.90
8248;DHT22;4164;49.844;8.830;2023-07-31T06:25:56;18.40;99.90
8248;DHT22;4164;49.844;8.830;2023-07-31T06:28:27;18.60;99.90
8248;DHT22;4164;49.844;8.830;2023-07-31T06:30:53;18.60;99.90
8248;DHT22;4164;49.844;8.830;2023-07-31T06:33:19;18.80;99.90
8248;DHT22;4164;49.844;8.830;2023-07-31T06:35:44;18.80;99.90
8248;DHT22;4164;49.844;8.830;2023-07-31T06:38:11;19.00;99.90
8248;DHT22;4164;49.844;8.830;2023-07-31T06:40:36;19.30;99.90
8248;DHT22;4164;49.844;8.830;2023-07-31T06:43:02;19.50;99.90
8248;DHT22;4164;49.844;8.830;2023-07-31T06:45:36;19.30;99.90
8248;DHT22;4164;49.844;8.830;2023-07-31T06:48:03;19.50;99.90
8248;DHT22;4164;49.844;8.830;2023-07-31T06:50:32;19.50;99.90
8248;DHT22;4164;49.844;8.830;2023-07-31T06:52:58;19.50;99.90
8248;DHT22;4164;49.844;8.830;2023-07-31T06:55:24;19.60;99.90
8248;DHT22;4164;49.844;8.830;2023-07-31T06:57:51;19.70;99.90
8248;DHT22;4164;49.844;8.830;2023-07-31T07:00:17;19.70;99.90
8248;DHT22;4164;49.844;8.830;2023-07-31T07:02:43;19.80;99.90
8248;DHT22;4164;49.844;8.830;2023-07-31T07:05:08;19.90;99.90
8248;DHT22;4164;49.844;8.830;2023-07-31T07:07:35;19.90;99.90
8248;DHT22;4164;49.844;8.830;2023-07-31T07:10:01;19.70;99.90
8248;DHT22;4164;49.844;8.830;2023-07-31T07:12:30;19.80;99.90
8248;DHT22;4164;49.844;8.830;2023-07-31T07:14:56;19.80;99.90
8248;DHT22;4164;49.844;8.830;2023-07-31T07:17:23;19.50;99.90
8248;DHT22;4164;49.844;8.830;2023-07-31T07:19:48;19.40;99.90
8248;DHT22;4164;49.844;8.830;2023-07-31T07:22:14;19.30;99.90
8248;DHT22;4164;49.844;8.830;2023-07-31T07:24:40;19.20;99.90
8248;DHT22;4164;49.844;8.830;2023-07-31T07:27:05;19.20;99.90
8248;DHT22;4164;49.844;8.830;2023-07-31T07:29:31;19.30;99.90
8248;DHT22;4164;49.844;8.830;2023-07-31T07:31:57;19.20;99.90
8248;DHT22;4164;49.844;8.830;2023-07-31T07:34:25;19.20;99.90
8248;DHT22;4164;49.844;8.830;2023-07-31T07:36:51;19.60;99.90
8248;DHT22;4164;49.844;8.830;2023-07-31T07:39:16;19.60;99.90
8248;DHT22;4164;49.844;8.830;2023-07-31T07:41:42;20.00;99.90
8248;DHT22;4164;49.844;8.830;2023-07-31T07:44:08;20.30;99.90
8248;DHT22;4164;49.844;8.830;2023-07-31T07:46:33;20.40;99.90
8248;DHT22;4164;49.844;8.830;2023-07-31T07:48:59;20.60;99.90
8248;DHT22;4164;49.844;8.830;2023-07-31T07:51:24;20.50;99.90
8248;DHT22;4164;49.844;8.830;2023-07-31T07:53:50;20.50;99.90
8248;DHT22;4164;49.844;8.830;2023-07-31T07:56:16;20.60;99.90
8248;DHT22;4164;49.844;8.830;2023-07-31T07:58:41;20.70;99.90
8248;DHT22;4164;49.844;8.830;2023-07-31T08:01:07;20.80;99.90
8248;DHT22;4164;49.844;8.830;2023-07-31T08:03:32;20.50;99.90
8248;DHT22;4164;49.844;8.830;2023-07-31T08:05:59;20.40;99.90
8248;DHT22;4164;49.844;8.830;2023-07-31T08:08:25;20.30;99.90
8248;DHT22;4164;49.844;8.830;2023-07-31T08:10:50;20.10;99.90
8248;DHT22;4164;49.844;8.830;2023-07-31T08:13:16;20.30;99.90
8248;DHT22;4164;49.844;8.830;2023-07-31T08:15:41;20.20;99.90
8248;DHT22;4164;49.844;8.830;2023-07-31T08:18:08;20.50;99.90
8248;DHT22;4164;49.844;8.830;2023-07-31T08:20:34;20.60;99.90
8248;DHT22;4164;49.844;8.830;2023-07-31T08:22:59;20.70;99.90
8248;DHT22;4164;49.844;8.830;2023-07-31T08:25:25;20.90;99.90
8248;DHT22;4164;49.844;8.830;2023-07-31T08:27:50;20.70;99.90
8248;DHT22;4164;49.844;8.830;2023-07-31T08:30:18;20.50;99.90
8248;DHT22;4164;49.844;8.830;2023-07-31T08:32:44;20.50;99.90
8248;DHT22;4164;49.844;8.830;2023-07-31T08:35:10;20.60;99.90
8248;DHT22;4164;49.844;8.830;2023-07-31T08:37:36;20.40;99.90
8248;DHT22;4164;49.844;8.830;2023-07-31T08:40:01;20.40;99.90
8248;DHT22;4164;49.844;8.830;2023-07-31T08:42:27;20.70;99.90
8248;DHT22;4164;49.844;8.830;2023-07-31T08:44:54;21.20;99.90
8248;DHT22;4164;49.844;8.830;2023-07-31T08:47:21;21.10;99.90
8248;DHT22;4164;49.844;8.830;2023-07-31T08:49:47;21.10;99.90
8248;DHT22;4164;49.844;8.830;2023-07-31T08:52:13;20.90;99.90
8248;DHT22;4164;49.844;8.830;2023-07-31T08:54:38;20.90;99.90
8248;DHT22;4164;49.844;8.830;2023-07-31T08:57:05;21.00;99.90
8248;DHT22;4164;49.844;8.830;2023-07-31T08:59:34;21.00;99.90
8248;DHT22;4164;49.844;8.830;2023-07-31T09:02:05;20.80;99.90
8248;DHT22;4164;49.844;8.830;2023-07-31T09:04:32;20.90;99.90
8248;DHT22;4164;49.844;8.830;2023-07-31T09:07:01;20.70;99.90
8248;DHT22;4164;49.844;8.830;2023-07-31T09:09:27;21.00;99.90
8248;DHT22;4164;49.844;8.830;2023-07-31T09:11:52;21.10;99.90
8248;DHT22;4164;49.844;8.830;2023-07-31T09:14:18;21.10;99.90
8248;DHT22;4164;49.844;8.830;2023-07-31T09:16:57;21.00;99.90
8248;DHT22;4164;49.844;8.830;2023-07-31T09:19:31;21.40;99.90
8248;DHT22;4164;49.844;8.830;2023-07-31T09:21:58;21.60;99.90
8248;DHT22;4164;49.844;8.830;2023-07-31T09:24:31;21.70;99.90
8248;DHT22;4164;49.844;8.830;2023-07-31T09:26:58;21.90;99.90
8248;DHT22;4164;49.844;8.830;2023-07-31T09:29:25;21.90;99.90
8248;DHT22;4164;49.844;8.830;2023-07-31T09:31:52;21.70;99.90
8248;DHT22;4164;49.844;8.830;2023-07-31T09:34:18;21.40;99.90
8248;DHT22;4164;49.844;8.830;2023-07-31T09:36:46;21.00;99.90
8248;DHT22;4164;49.844;8.830;2023-07-31T09:39:13;20.90;99.90
8248;DHT22;4164;49.844;8.830;2023-07-31T09:41:47;20.70;99.90
8248;DHT22;4164;49.844;8.830;2023-07-31T09:44:18;20.70;99.90
8248;DHT22;4164;49.844;8.830;2023-07-31T09:46:44;20.80;99.90
8248;DHT22;4164;49.844;8.830;2023-07-31T09:49:10;20.90;99.90
8248;DHT22;4164;49.844;8.830;2023-07-31T09:51:37;21.10;99.90
8248;DHT22;4164;49.844;8.830;2023-07-31T09:54:11;21.20;99.90
8248;DHT22;4164;49.844;8.830;2023-07-31T09:56:48;21.10;99.90
8248;DHT22;4164;49.844;8.830;2023-07-31T09:59:18;21.60;99.90
8248;DHT22;4164;49.844;8.830;2023-07-31T10:01:46;22.00;99.90
8248;DHT22;4164;49.844;8.830;2023-07-31T10:04:12;22.10;99.90
8248;DHT22;4164;49.844;8.830;2023-07-31T10:06:38;22.20;99.90
8248;DHT22;4164;49.844;8.830;2023-07-31T10:09:08;22.30;99.90
8248;DHT22;4164;49.844;8.830;2023-07-31T10:11:41;22.00;99.90
8248;DHT22;4164;49.844;8.830;2023-07-31T10:14:09;22.00;99.90
8248;DHT22;4164;49.844;8.830;2023-07-31T10:16:38;22.10;99.90
8248;DHT22;4164;49.844;8.830;2023-07-31T10:19:04;22.30;99.90
8248;DHT22;4164;49.844;8.830;2023-07-31T10:21:31;22.20;99.90
8248;DHT22;4164;49.844;8.830;2023-07-31T10:24:03;22.30;99.90
8248;DHT22;4164;49.844;8.830;2023-07-31T10:26:31;22.50;99.90
8248;DHT22;4164;49.844;8.830;2023-07-31T10:28:58;22.70;99.90
8248;DHT22;4164;49.844;8.830;2023-07-31T10:31:24;22.80;99.90
8248;DHT22;4164;49.844;8.830;2023-07-31T10:33:51;22.20;99.90
8248;DHT22;4164;49.844;8.830;2023-07-31T10:36:19;22.70;99.90
8248;DHT22;4164;49.844;8.830;2023-07-31T10:38:46;22.80;99.90
8248;DHT22;4164;49.844;8.830;2023-07-31T10:41:13;22.40;99.90
8248;DHT22;4164;49.844;8.830;2023-07-31T10:43:39;22.30;99.90
8248;DHT22;4164;49.844;8.830;2023-07-31T10:46:09;22.30;99.90
8248;DHT22;4164;49.844;8.830;2023-07-31T10:48:37;22.30;99.90
8248;DHT22;4164;49.844;8.830;2023-07-31T10:51:08;22.60;99.90
8248;DHT22;4164;49.844;8.830;2023-07-31T10:53:34;23.10;99.90
8248;DHT22;4164;49.844;8.830;2023-07-31T10:56:00;23.10;99.90
8248;DHT22;4164;49.844;8.830;2023-07-31T10:58:27;22.60;99.90
8248;DHT22;4164;49.844;8.830;2023-07-31T11:00:57;22.50;99.90
8248;DHT22;4164;49.844;8.830;2023-07-31T11:06:10;22.50;99.90
8248;DHT22;4164;49.844;8.830;2023-07-31T11:08:42;22.40;99.90
8248;DHT22;4164;49.844;8.830;2023-07-31T11:11:09;22.60;99.90
8248;DHT22;4164;49.844;8.830;2023-07-31T11:16:08;23.10;99.90
8248;DHT22;4164;49.844;8.830;2023-07-31T11:18:35;23.50;99.90
8248;DHT22;4164;49.844;8.830;2023-07-31T11:21:00;23.70;99.90
8248;DHT22;4164;49.844;8.830;2023-07-31T11:23:26;23.80;99.90
8248;DHT22;4164;49.844;8.830;2023-07-31T11:25:52;23.80;99.90
8248;DHT22;4164;49.844;8.830;2023-07-31T11:28:19;23.40;99.90
8248;DHT22;4164;49.844;8.830;2023-07-31T11:30:45;23.00;99.90
8248;DHT22;4164;49.844;8.830;2023-07-31T11:33:13;22.70;99.90
8248;DHT22;4164;49.844;8.830;2023-07-31T11:35:45;22.50;99.90
8248;DHT22;4164;49.844;8.830;2023-07-31T11:38:12;22.20;99.90
8248;DHT22;4164;49.844;8.830;2023-07-31T11:40:46;22.20;99.90
8248;DHT22;4164;49.844;8.830;2023-07-31T11:43:11;21.90;99.90
8248;DHT22;4164;49.844;8.830;2023-07-31T11:45:41;21.80;99.90
8248;DHT22;4164;49.844;8.830;2023-07-31T11:48:07;22.00;99.90
8248;DHT22;4164;49.844;8.830;2023-07-31T11:50:33;22.50;99.90
8248;DHT22;4164;49.844;8.830;2023-07-31T11:53:04;23.00;99.90
8248;DHT22;4164;49.844;8.830;2023-07-31T11:55:31;24.20;99.90
8248;DHT22;4164;49.844;8.830;2023-07-31T11:57:58;24.60;99.90
8248;DHT22;4164;49.844;8.830;2023-07-31T12:00:25;24.40;99.90
8248;DHT22;4164;49.844;8.830;2023-07-31T12:02:53;23.80;99.90
8248;DHT22;4164;49.844;8.830;2023-07-31T12:05:19;23.20;99.90
8248;DHT22;4164;49.844;8.830;2023-07-31T12:07:50;23.40;99.90
8248;DHT22;4164;49.844;8.830;2023-07-31T12:10:23;23.30;99.90
8248;DHT22;4164;49.844;8.830;2023-07-31T12:12:56;23.70;99.90
8248;DHT22;4164;49.844;8.830;2023-07-31T12:15:29;23.30;99.90
8248;DHT22;4164;49.844;8.830;2023-07-31T12:17:56;23.50;99.90
8248;DHT22;4164;49.844;8.830;2023-07-31T12:20:22;23.60;99.90
8248;DHT22;4164;49.844;8.830;2023-07-31T12:22:47;23.30;99.90
8248;DHT22;4164;49.844;8.830;2023-07-31T12:25:16;23.40;99.90
8248;DHT22;4164;49.844;8.830;2023-07-31T12:27:44;24.30;99.90
8248;DHT22;4164;49.844;8.830;2023-07-31T12:30:29;24.30;99.90
8248;DHT22;4164;49.844;8.830;2023-07-31T12:32:56;24.00;99.90
8248;DHT22;4164;49.844;8.830;2023-07-31T12:35:22;24.00;99.90
8248;DHT22;4164;49.844;8.830;2023-07-31T12:37:47;24.00;99.90
8248;DHT22;4164;49.844;8.830;2023-07-31T12:40:13;23.90;99.90
8248;DHT22;4164;49.844;8.830;2023-07-31T12:42:39;23.40;99.90
8248;DHT22;4164;49.844;8.830;2023-07-31T12:45:06;23.10;99.90
8248;DHT22;4164;49.844;8.830;2023-07-31T12:47:31;23.00;99.90
8248;DHT22;4164;49.844;8.830;2023-07-31T12:49:57;22.80;99.90
8248;DHT22;4164;49.844;8.830;2023-07-31T12:52:22;23.00;99.90
8248;DHT22;4164;49.844;8.830;2023-07-31T12:54:48;23.00;99.90
8248;DHT22;4164;49.844;8.830;2023-07-31T12:57:14;23.00;99.90
8248;DHT22;4164;49.844;8.830;2023-07-31T12:59:39;23.10;99.90
8248;DHT22;4164;49.844;8.830;2023-07-31T13:02:05;23.40;99.90
8248;DHT22;4164;49.844;8.830;2023-07-31T13:04:30;23.90;99.90
8248;DHT22;4164;49.844;8.830;2023-07-31T13:06:56;24.20;99.90
8248;DHT22;4164;49.844;8.830;2023-07-31T13:09:21;23.70;99.90
8248;DHT22;4164;49.844;8.830;2023-07-31T13:11:47;23.60;99.90
8248;DHT22;4164;49.844;8.830;2023-07-31T13:14:12;23.60;99.90
8248;DHT22;4164;49.844;8.830;2023-07-31T13:16:38;23.40;99.90
8248;DHT22;4164;49.844;8.830;2023-07-31T13:19:04;23.80;99.90
8248;DHT22;4164;49.844;8.830;2023-07-31T13:21:29;23.80;99.90
8248;DHT22;4164;49.844;8.830;2023-07-31T13:23:55;24.00;99.90
8248;DHT22;4164;49.844;8.830;2023-07-31T13:26:23;24.10;99.90
8248;DHT22;4164;49.844;8.830;2023-07-31T13:28:48;23.90;99.90
8248;DHT22;4164;49.844;8.830;2023-07-31T13:31:14;24.40;99.90
8248;DHT22;4164;49.844;8.830;2023-07-31T13:33:39;24.30;99.90
8248;DHT22;4164;49.844;8.830;2023-07-31T13:36:05;24.60;99.90
8248;DHT22;4164;49.844;8.830;2023-07-31T13:38:30;24.60;99.90
8248;DHT22;4164;49.844;8.830;2023-07-31T13:40:56;24.40;99.90
8248;DHT22;4164;49.844;8.830;2023-07-31T13:43:22;24.30;99.90
8248;DHT22;4164;49.844;8.830;2023-07-31T13:45:47;24.30;99.90
8248;DHT22;4164;49.844;8.830;2023-07-31T13:48:13;23.90;99.90
8248;DHT22;4164;49.844;8.830;2023-07-31T13:50:38;24.00;99.90
8248;DHT22;4164;49.844;8.830;2023-07-31T13:53:04;24.60;99.90
8248;DHT22;4164;49.844;8.830;2023-07-31T13:55:29;24.70;99.90
8248;DHT22;4164;49.844;8.830;2023-07-31T13:57:55;24.80;99.90
8248;DHT22;4164;49.844;8.830;2023-07-31T14:00:20;24.90;99.90
8248;DHT22;4164;49.844;8.830;2023-07-31T14:02:46;24.40;99.90
8248;DHT22;4164;49.844;8.830;2023-07-31T14:05:11;24.10;99.90
8248;DHT22;4164;49.844;8.830;2023-07-31T14:07:37;24.00;99.90
8248;DHT22;4164;49.844;8.830;2023-07-31T14:10:03;24.00;99.90
8248;DHT22;4164;49.844;8.830;2023-07-31T14:12:29;23.80;99.90
8248;DHT22;4164;49.844;8.830;2023-07-31T14:14:56;23.70;99.90
8248;DHT22;4164;49.844;8.830;2023-07-31T14:17:21;23.50;99.90
8248;DHT22;4164;49.844;8.830;2023-07-31T14:19:47;23.30;99.90
8248;DHT22;4164;49.844;8.830;2023-07-31T14:22:12;23.20;99.90
8248;DHT22;4164;49.844;8.830;2023-07-31T14:24:38;22.90;99.90
8248;DHT22;4164;49.844;8.830;2023-07-31T14:27:04;22.70;99.90
8248;DHT22;4164;49.844;8.830;2023-07-31T14:29:30;22.70;99.90
8248;DHT22;4164;49.844;8.830;2023-07-31T14:31:55;22.60;99.90
8248;DHT22;4164;49.844;8.830;2023-07-31T14:34:21;22.60;99.90
8248;DHT22;4164;49.844;8.830;2023-07-31T14:36:46;22.70;99.90
8248;DHT22;4164;49.844;8.830;2023-07-31T14:39:12;22.70;99.90
8248;DHT22;4164;49.844;8.830;2023-07-31T14:41:37;22.60;99.90
8248;DHT22;4164;49.844;8.830;2023-07-31T14:44:03;22.40;99.90
8248;DHT22;4164;49.844;8.830;2023-07-31T14:46:29;22.40;99.90
8248;DHT22;4164;49.844;8.830;2023-07-31T14:48:54;22.50;99.90
8248;DHT22;4164;49.844;8.830;2023-07-31T14:51:20;22.40;99.90
8248;DHT22;4164;49.844;8.830;2023-07-31T14:53:46;22.30;99.90
8248;DHT22;4164;49.844;8.830;2023-07-31T14:56:12;22.30;99.90
8248;DHT22;4164;49.844;8.830;2023-07-31T14:58:38;22.20;99.90
8248;DHT22;4164;49.844;8.830;2023-07-31T15:01:03;22.30;99.90
8248;DHT22;4164;49.844;8.830;2023-07-31T15:03:29;22.20;99.90
8248;DHT22;4164;49.844;8.830;2023-07-31T15:05:54;22.20;99.90
8248;DHT22;4164;49.844;8.830;2023-07-31T15:08:20;22.30;99.90
8248;DHT22;4164;49.844;8.830;2023-07-31T15:10:46;22.40;99.90
8248;DHT22;4164;49.844;8.830;2023-07-31T15:13:11;22.30;99.90
8248;DHT22;4164;49.844;8.830;2023-07-31T15:15:37;22.30;99.90
8248;DHT22;4164;49.844;8.830;2023-07-31T15:18:03;22.30;99.90
8248;DHT22;4164;49.844;8.830;2023-07-31T15:20:28;22.40;99.90
8248;DHT22;4164;49.844;8.830;2023-07-31T15:22:55;22.40;99.90
8248;DHT22;4164;49.844;8.830;2023-07-31T15:25:21;22.30;99.90
8248;DHT22;4164;49.844;8.830;2023-07-31T15:27:46;22.20;99.90
8248;DHT22;4164;49.844;8.830;2023-07-31T15:30:12;22.30;99.90
8248;DHT22;4164;49.844;8.830;2023-07-31T15:32:38;22.20;99.90
8248;DHT22;4164;49.844;8.830;2023-07-31T15:35:05;22.10;99.90
8248;DHT22;4164;49.844;8.830;2023-07-31T15:37:31;22.00;99.90
8248;DHT22;4164;49.844;8.830;2023-07-31T15:39:56;22.10;99.90
8248;DHT22;4164;49.844;8.830;2023-07-31T15:42:22;22.00;99.90
8248;DHT22;4164;49.844;8.830;2023-07-31T15:44:47;22.10;99.90
8248;DHT22;4164;49.844;8.830;2023-07-31T15:47:13;22.20;99.90
8248;DHT22;4164;49.844;8.830;2023-07-31T15:49:38;22.10;99.90
8248;DHT22;4164;49.844;8.830;2023-07-31T15:52:04;22.20;99.90
8248;DHT22;4164;49.844;8.830;2023-07-31T15:54:30;22.30;99.90
8248;DHT22;4164;49.844;8.830;2023-07-31T15:56:56;22.20;99.90
8248;DHT22;4164;49.844;8.830;2023-07-31T15:59:21;22.10;99.90
8248;DHT22;4164;49.844;8.830;2023-07-31T16:01:47;22.00;99.90
8248;DHT22;4164;49.844;8.830;2023-07-31T16:04:12;22.10;99.90
8248;DHT22;4164;49.844;8.830;2023-07-31T16:06:38;22.00;99.90
8248;DHT22;4164;49.844;8.830;2023-07-31T16:09:03;21.90;99.90
8248;DHT22;4164;49.844;8.830;2023-07-31T16:11:29;22.00;99.90